createdAt,value
2023-02-05T00:00:17.737Z,8.52
2023-02-05T00:01:17.727Z,8.47
2023-02-05T00:02:17.753Z,8.38
2023-02-05T00:03:17.754Z,8.37
2023-02-05T00:04:17.702Z,8.42
2023-02-05T00:05:17.699Z,8.41
2023-02-05T00:06:17.691Z,8.44
2023-02-05T00:07:17.682Z,8.37
2023-02-05T00:08:17.665Z,8.28
2023-02-05T00:09:17.660Z,8.39
2023-02-05T00:10:17.661Z,8.44
2023-02-05T00:11:17.673Z,8.38
2023-02-05T00:12:17.646Z,8.24
2023-02-05T00:13:17.635Z,8.41
2023-02-05T00:14:17.626Z,8.35
2023-02-05T00:15:17.615Z,8.29
2023-02-05T00:16:17.647Z,8.29
2023-02-05T00:17:17.607Z,8.31
2023-02-05T00:18:17.596Z,8.38
2023-02-05T00:19:17.583Z,8.38
2023-02-05T00:20:17.581Z,8.35
2023-02-05T00:21:17.563Z,8.38
2023-02-05T00:22:17.561Z,8.37
2023-02-05T00:23:17.551Z,8.39
2023-02-05T00:24:17.538Z,8.38
2023-02-05T00:25:17.532Z,8.37
2023-02-05T00:26:17.524Z,8.49
2023-02-05T00:27:17.537Z,8.46
2023-02-05T00:28:17.543Z,8.42
2023-02-05T00:29:17.504Z,8.39
2023-02-05T00:30:17.501Z,8.39
2023-02-05T00:31:17.603Z,8.37
2023-02-05T00:32:17.485Z,8.41
2023-02-05T00:33:17.475Z,8.47
2023-02-05T00:34:17.482Z,8.28
2023-02-05T00:35:17.445Z,8.32
2023-02-05T00:36:17.450Z,8.29
2023-02-05T00:37:17.434Z,8.29
2023-02-05T00:38:17.430Z,8.21
2023-02-05T00:39:17.441Z,8.28
2023-02-05T00:40:17.411Z,8.21
2023-02-05T00:41:17.405Z,8.21
2023-02-05T00:42:17.404Z,8.14
2023-02-05T00:43:17.384Z,8.16
2023-02-05T00:44:17.387Z,8.09
2023-02-05T00:45:17.378Z,8.01
2023-02-05T00:46:17.415Z,8.17
2023-02-05T00:47:17.356Z,8.16
2023-02-05T00:48:17.350Z,8.19
2023-02-05T00:49:17.348Z,8.19
2023-02-05T00:50:17.330Z,8.26
2023-02-05T00:51:17.332Z,8.20
2023-02-05T00:52:17.320Z,8.24
2023-02-05T00:53:17.307Z,8.28
2023-02-05T00:54:17.321Z,8.23
2023-02-05T00:55:17.292Z,8.21
2023-02-05T00:56:17.301Z,8.16
2023-02-05T00:57:17.281Z,8.16
2023-02-05T00:58:17.276Z,8.12
2023-02-05T00:59:17.258Z,8.05
2023-02-05T01:00:17.248Z,8.05
2023-02-05T01:01:17.286Z,8.01
2023-02-05T01:02:17.265Z,7.96
2023-02-05T01:03:17.223Z,8.05
2023-02-05T01:04:17.224Z,8.14
2023-02-05T01:05:17.213Z,8.23
2023-02-05T01:06:17.219Z,8.24
2023-02-05T01:07:17.195Z,8.38
2023-02-05T01:08:17.191Z,8.42
2023-02-05T01:09:17.176Z,8.39
2023-02-05T01:10:17.170Z,8.46
2023-02-05T01:11:17.165Z,8.50
2023-02-05T01:12:17.166Z,8.57
2023-02-05T01:13:18.147Z,8.57
2023-02-05T01:14:17.144Z,8.63
2023-02-05T01:15:17.137Z,8.60
2023-02-05T01:16:17.269Z,8.60
2023-02-05T01:17:17.110Z,8.60
2023-02-05T01:18:17.111Z,8.60
2023-02-05T01:19:17.105Z,8.56
2023-02-05T01:20:17.094Z,8.42
2023-02-05T01:21:17.083Z,8.49
2023-02-05T01:22:17.068Z,8.28
2023-02-05T01:23:17.100Z,8.21
2023-02-05T01:24:17.060Z,8.09
2023-02-05T01:25:17.048Z,8.05
2023-02-05T01:26:17.071Z,8.04
2023-02-05T01:27:17.036Z,7.99
2023-02-05T01:28:17.096Z,8.01
2023-02-05T01:29:17.032Z,8.10
2023-02-05T01:30:17.021Z,8.10
2023-02-05T01:31:17.137Z,8.02
2023-02-05T01:32:16.994Z,8.02
2023-02-05T01:33:17.020Z,8.06
2023-02-05T01:34:16.987Z,8.05
2023-02-05T01:35:16.970Z,8.14
2023-02-05T01:36:16.965Z,8.23
2023-02-05T01:37:16.945Z,8.24
2023-02-05T01:38:16.949Z,8.29
2023-02-05T01:39:16.935Z,8.38
2023-02-05T01:40:16.933Z,8.39
2023-02-05T01:41:16.926Z,8.34
2023-02-05T01:42:16.909Z,8.47
2023-02-05T01:43:16.901Z,8.42
2023-02-05T01:44:16.903Z,8.52
2023-02-05T01:45:16.878Z,8.56
2023-02-05T01:46:16.903Z,8.52
2023-02-05T01:47:16.869Z,8.57
2023-02-05T01:48:16.860Z,8.57
2023-02-05T01:49:16.852Z,8.55
2023-02-05T01:50:16.840Z,8.56
2023-02-05T01:51:16.831Z,8.60
2023-02-05T01:52:16.830Z,8.57
2023-02-05T01:53:16.815Z,8.57
2023-02-05T01:54:16.799Z,8.60
2023-02-05T01:55:16.798Z,8.62
2023-02-05T01:56:16.787Z,8.55
2023-02-05T01:57:16.788Z,8.65
2023-02-05T01:58:16.768Z,8.59
2023-02-05T01:59:16.757Z,8.57
2023-02-05T02:00:16.760Z,8.56
2023-02-05T02:01:16.782Z,8.57
2023-02-05T02:02:16.733Z,8.57
2023-02-05T02:03:16.739Z,8.56
2023-02-05T02:04:16.723Z,8.60
2023-02-05T02:05:16.762Z,8.55
2023-02-05T02:06:16.714Z,8.41
2023-02-05T02:07:16.726Z,8.42
2023-02-05T02:08:16.682Z,8.32
2023-02-05T02:09:16.694Z,8.35
2023-02-05T02:10:16.679Z,8.34
2023-02-05T02:11:16.674Z,8.28
2023-02-05T02:12:16.662Z,8.29
2023-02-05T02:13:16.647Z,8.35
2023-02-05T02:14:16.655Z,8.31
2023-02-05T02:15:16.630Z,8.26
2023-02-05T02:16:16.637Z,8.23
2023-02-05T02:17:16.632Z,8.12
2023-02-05T02:18:16.632Z,8.04
2023-02-05T02:19:16.591Z,8.10
2023-02-05T02:20:16.588Z,8.04
2023-02-05T02:21:16.580Z,8.04
2023-02-05T02:22:16.582Z,8.09
2023-02-05T02:23:16.580Z,8.05
2023-02-05T02:24:16.566Z,8.10
2023-02-05T02:25:16.570Z,8.13
2023-02-05T02:26:16.545Z,8.17
2023-02-05T02:27:16.529Z,8.29
2023-02-05T02:28:16.531Z,8.28
2023-02-05T02:29:16.511Z,8.26
2023-02-05T02:30:16.513Z,8.26
2023-02-05T02:31:16.576Z,8.31
2023-02-05T02:32:16.493Z,8.26
2023-02-05T02:33:16.492Z,8.13
2023-02-05T02:34:16.463Z,8.04
2023-02-05T02:35:16.497Z,8.12
2023-02-05T02:36:16.460Z,8.01
2023-02-05T02:37:16.458Z,7.95
2023-02-05T02:38:16.451Z,7.80
2023-02-05T02:39:16.432Z,7.94
2023-02-05T02:40:16.414Z,7.95
2023-02-05T02:41:16.428Z,7.88
2023-02-05T02:42:16.408Z,7.81
2023-02-05T02:43:16.401Z,7.81
2023-02-05T02:44:16.405Z,7.84
2023-02-05T02:45:16.380Z,7.86
2023-02-05T02:46:16.405Z,7.69
2023-02-05T02:47:16.372Z,7.71
2023-02-05T02:48:16.360Z,7.76
2023-02-05T02:49:16.353Z,7.76
2023-02-05T02:50:16.354Z,7.69
2023-02-05T02:51:16.335Z,7.73
2023-02-05T02:52:16.325Z,7.86
2023-02-05T02:53:16.321Z,7.86
2023-02-05T02:54:16.315Z,7.80
2023-02-05T02:55:16.301Z,7.76
2023-02-05T02:56:16.306Z,7.78
2023-02-05T02:57:16.287Z,7.84
2023-02-05T02:58:16.281Z,7.86
2023-02-05T02:59:16.271Z,7.98
2023-02-05T03:00:16.276Z,8.05
2023-02-05T03:01:16.264Z,8.09
2023-02-05T03:02:16.247Z,8.05
2023-02-05T03:03:16.261Z,8.09
2023-02-05T03:04:16.245Z,8.04
2023-02-05T03:05:16.221Z,8.02
2023-02-05T03:06:16.215Z,8.04
2023-02-05T03:07:16.216Z,8.17
2023-02-05T03:08:16.195Z,8.10
2023-02-05T03:09:16.198Z,8.13
2023-02-05T03:10:16.184Z,8.20
2023-02-05T03:11:16.176Z,8.26
2023-02-05T03:12:16.182Z,8.24
2023-02-05T03:13:16.170Z,8.29
2023-02-05T03:14:16.144Z,8.24
2023-02-05T03:15:16.139Z,8.26
2023-02-05T03:16:16.171Z,8.24
2023-02-05T03:17:16.122Z,8.29
2023-02-05T03:18:16.112Z,8.26
2023-02-05T03:19:16.114Z,8.28
2023-02-05T03:20:16.105Z,8.29
2023-02-05T03:21:16.083Z,8.32
2023-02-05T03:22:16.083Z,8.38
2023-02-05T03:23:16.071Z,8.38
2023-02-05T03:24:16.068Z,8.29
2023-02-05T03:25:16.052Z,8.26
2023-02-05T03:26:16.046Z,8.34
2023-02-05T03:27:16.046Z,8.28
2023-02-05T03:28:16.091Z,8.28
2023-02-05T03:29:16.029Z,8.21
2023-02-05T03:30:16.004Z,8.17
2023-02-05T03:31:16.090Z,8.12
2023-02-05T03:32:16.002Z,8.09
2023-02-05T03:33:15.995Z,8.20
2023-02-05T03:34:15.981Z,8.19
2023-02-05T03:35:15.976Z,8.12
2023-02-05T03:36:15.968Z,8.16
2023-02-05T03:37:15.955Z,8.17
2023-02-05T03:38:15.937Z,8.14
2023-02-05T03:39:15.946Z,8.14
2023-02-05T03:40:15.934Z,8.20
2023-02-05T03:41:15.943Z,8.23
2023-02-05T03:42:15.913Z,8.26
2023-02-05T03:43:15.890Z,8.26
2023-02-05T03:44:15.899Z,8.31
2023-02-05T03:45:15.876Z,8.31
2023-02-05T03:46:15.914Z,8.28
2023-02-05T03:47:15.863Z,8.29
2023-02-05T03:48:15.863Z,8.29
2023-02-05T03:49:15.867Z,8.29
2023-02-05T03:50:15.853Z,8.29
2023-02-05T03:51:15.836Z,8.24
2023-02-05T03:52:15.813Z,8.35
2023-02-05T03:53:15.812Z,8.39
2023-02-05T03:54:15.804Z,8.26
2023-02-05T03:55:15.805Z,8.29
2023-02-05T03:56:15.781Z,8.24
2023-02-05T03:57:15.771Z,8.24
2023-02-05T03:58:15.773Z,8.28
2023-02-05T03:59:15.769Z,8.21
2023-02-05T04:00:15.752Z,8.14
2023-02-05T04:01:15.870Z,8.06
2023-02-05T04:02:15.779Z,8.04
2023-02-05T04:03:15.722Z,8.02
2023-02-05T04:04:15.711Z,8.04
2023-02-05T04:05:15.696Z,8.05
2023-02-05T04:06:15.711Z,7.99
2023-02-05T04:07:15.687Z,8.05
2023-02-05T04:08:15.684Z,7.98
2023-02-05T04:09:15.659Z,7.94
2023-02-05T04:10:15.668Z,7.80
2023-02-05T04:11:15.656Z,7.76
2023-02-05T04:12:15.636Z,7.78
2023-02-05T04:13:15.644Z,7.86
2023-02-05T04:14:15.635Z,7.78
2023-02-05T04:15:15.628Z,7.95
2023-02-05T04:16:15.677Z,7.99
2023-02-05T04:17:15.599Z,8.04
2023-02-05T04:18:15.588Z,8.09
2023-02-05T04:19:15.579Z,8.05
2023-02-05T04:20:15.575Z,8.05
2023-02-05T04:21:15.560Z,8.14
2023-02-05T04:22:15.567Z,8.14
2023-02-05T04:23:15.570Z,8.06
2023-02-05T04:24:15.618Z,8.05
2023-02-05T04:25:15.528Z,8.04
2023-02-05T04:26:15.538Z,7.96
2023-02-05T04:27:15.529Z,7.99
2023-02-05T04:28:15.608Z,8.02
2023-02-05T04:29:15.492Z,8.01
2023-02-05T04:30:15.504Z,8.06
2023-02-05T04:31:15.586Z,8.10
2023-02-05T04:32:15.487Z,8.05
2023-02-05T04:33:15.468Z,8.12
2023-02-05T04:34:15.463Z,8.12
2023-02-05T04:35:15.459Z,8.04
2023-02-05T04:36:15.487Z,7.95
2023-02-05T04:37:15.446Z,7.88
2023-02-05T04:38:15.421Z,7.88
2023-02-05T04:39:15.427Z,7.96
2023-02-05T04:40:15.409Z,7.98
2023-02-05T04:41:15.402Z,7.95
2023-02-05T04:42:15.400Z,7.91
2023-02-05T04:43:15.382Z,7.87
2023-02-05T04:44:15.383Z,7.96
2023-02-05T04:45:15.375Z,7.87
2023-02-05T04:46:15.407Z,7.95
2023-02-05T04:47:15.352Z,7.81
2023-02-05T04:48:15.359Z,7.86
2023-02-05T04:49:15.333Z,7.92
2023-02-05T04:50:15.318Z,7.91
2023-02-05T04:51:15.328Z,7.84
2023-02-05T04:52:15.313Z,7.77
2023-02-05T04:53:15.302Z,7.81
2023-02-05T04:54:15.294Z,7.83
2023-02-05T04:55:15.283Z,7.78
2023-02-05T04:56:15.286Z,7.78
2023-02-05T04:57:15.279Z,7.68
2023-02-05T04:58:15.253Z,7.71
2023-02-05T04:59:15.247Z,7.74
2023-02-05T05:00:15.233Z,7.68
2023-02-05T05:01:15.411Z,7.64
2023-02-05T05:02:15.269Z,7.54
2023-02-05T05:03:15.216Z,7.58
2023-02-05T05:04:15.227Z,7.58
2023-02-05T05:05:15.195Z,7.54
2023-02-05T05:06:15.207Z,7.57
2023-02-05T05:07:15.194Z,7.54
2023-02-05T05:08:15.173Z,7.55
2023-02-05T05:09:15.181Z,7.54
2023-02-05T05:10:15.170Z,7.52
2023-02-05T05:11:15.152Z,7.54
2023-02-05T05:12:15.143Z,7.54
2023-02-05T05:13:15.128Z,7.69
2023-02-05T05:14:15.130Z,7.64
2023-02-05T05:15:15.110Z,7.58
2023-02-05T05:16:15.164Z,7.60
2023-02-05T05:17:15.102Z,7.52
2023-02-05T05:18:15.090Z,7.61
2023-02-05T05:19:15.324Z,7.52
2023-02-05T05:20:15.078Z,7.64
2023-02-05T05:21:15.083Z,7.77
2023-02-05T05:22:15.067Z,7.77
2023-02-05T05:23:15.040Z,7.80
2023-02-05T05:24:15.041Z,7.81
2023-02-05T05:25:15.038Z,7.84
2023-02-05T05:26:15.019Z,7.98
2023-02-05T05:27:15.012Z,7.88
2023-02-05T05:28:15.092Z,7.94
2023-02-05T05:29:15.000Z,7.91
2023-02-05T05:30:15.013Z,7.96
2023-02-05T05:31:15.009Z,8.05
2023-02-05T05:32:15.024Z,8.06
2023-02-05T05:33:14.952Z,8.04
2023-02-05T05:34:14.966Z,8.13
2023-02-05T05:35:14.951Z,8.02
2023-02-05T05:36:14.945Z,8.10
2023-02-05T05:37:14.931Z,8.17
2023-02-05T05:38:14.922Z,8.02
2023-02-05T05:39:14.914Z,8.06
2023-02-05T05:40:14.903Z,8.01
2023-02-05T05:41:14.901Z,8.05
2023-02-05T05:42:14.891Z,8.05
2023-02-05T05:43:14.873Z,8.10
2023-02-05T05:44:14.871Z,8.10
2023-02-05T05:45:14.860Z,8.06
2023-02-05T05:46:14.887Z,8.10
2023-02-05T05:47:14.843Z,8.13
2023-02-05T05:48:14.833Z,8.17
2023-02-05T05:49:14.835Z,8.10
2023-02-05T05:50:14.838Z,8.12
2023-02-05T05:51:14.809Z,8.05
2023-02-05T05:52:14.805Z,8.01
2023-02-05T05:53:14.791Z,8.12
2023-02-05T05:54:14.791Z,8.10
2023-02-05T05:55:14.769Z,8.04
2023-02-05T05:56:14.770Z,7.76
2023-02-05T05:57:14.767Z,7.78
2023-02-05T05:58:14.743Z,7.68
2023-02-05T05:59:14.757Z,7.80
2023-02-05T06:00:14.736Z,7.87
2023-02-05T06:01:14.720Z,7.81
2023-02-05T06:02:14.744Z,7.84
2023-02-05T06:03:14.716Z,7.95
2023-02-05T06:04:14.793Z,7.80
2023-02-05T06:05:14.687Z,7.92
2023-02-05T06:06:14.680Z,7.96
2023-02-05T06:07:14.672Z,8.02
2023-02-05T06:08:14.657Z,7.94
2023-02-05T06:09:14.653Z,7.98
2023-02-05T06:10:14.640Z,8.06
2023-02-05T06:11:14.635Z,7.91
2023-02-05T06:12:14.618Z,8.01
2023-02-05T06:13:14.609Z,8.09
2023-02-05T06:14:14.606Z,8.01
2023-02-05T06:15:14.592Z,8.04
2023-02-05T06:16:14.701Z,7.96
2023-02-05T06:17:14.582Z,7.98
2023-02-05T06:18:14.567Z,8.06
2023-02-05T06:19:14.557Z,7.96
2023-02-05T06:20:14.549Z,7.92
2023-02-05T06:21:14.543Z,7.80
2023-02-05T06:22:14.525Z,7.88
2023-02-05T06:23:14.530Z,7.74
2023-02-05T06:24:14.521Z,7.78
2023-02-05T06:25:14.509Z,7.71
2023-02-05T06:26:14.497Z,7.69
2023-02-05T06:27:14.485Z,7.71
2023-02-05T06:28:14.496Z,7.71
2023-02-05T06:29:14.462Z,7.80
2023-02-05T06:30:14.471Z,7.81
2023-02-05T06:31:14.590Z,7.83
2023-02-05T06:32:14.451Z,7.84
2023-02-05T06:33:14.444Z,7.81
2023-02-05T06:34:14.432Z,7.87
2023-02-05T06:35:14.418Z,7.86
2023-02-05T06:36:14.416Z,7.96
2023-02-05T06:37:14.405Z,7.86
2023-02-05T06:38:14.405Z,7.98
2023-02-05T06:39:14.384Z,8.01
2023-02-05T06:40:14.380Z,8.02
2023-02-05T06:41:14.380Z,8.09
2023-02-05T06:42:14.355Z,8.09
2023-02-05T06:43:14.354Z,8.01
2023-02-05T06:44:14.342Z,8.05
2023-02-05T06:45:14.336Z,7.98
2023-02-05T06:46:14.348Z,7.95
2023-02-05T06:47:14.333Z,7.86
2023-02-05T06:48:14.309Z,8.01
2023-02-05T06:49:14.307Z,8.10
2023-02-05T06:50:14.291Z,8.12
2023-02-05T06:51:14.289Z,8.10
2023-02-05T06:52:14.276Z,8.10
2023-02-05T06:53:14.256Z,8.05
2023-02-05T06:54:14.263Z,8.16
2023-02-05T06:55:14.251Z,8.20
2023-02-05T06:56:14.246Z,8.23
2023-02-05T06:57:14.239Z,8.23
2023-02-05T06:58:14.225Z,8.23
2023-02-05T06:59:14.232Z,8.21
2023-02-05T07:00:14.214Z,8.19
2023-02-05T07:01:14.208Z,8.23
2023-02-05T07:02:14.186Z,8.21
2023-02-05T07:03:14.190Z,8.20
2023-02-05T07:04:14.175Z,8.28
2023-02-05T07:05:14.178Z,8.28
2023-02-05T07:06:14.166Z,8.31
2023-02-05T07:07:14.148Z,8.34
2023-02-05T07:08:14.138Z,8.38
2023-02-05T07:09:14.149Z,8.41
2023-02-05T07:10:14.146Z,8.32
2023-02-05T07:11:14.144Z,8.24
2023-02-05T07:12:14.104Z,8.26
2023-02-05T07:13:14.111Z,8.16
2023-02-05T07:14:14.095Z,8.12
2023-02-05T07:15:14.100Z,8.19
2023-02-05T07:16:14.148Z,8.06
2023-02-05T07:17:14.069Z,8.17
2023-02-05T07:18:14.059Z,8.21
2023-02-05T07:19:14.054Z,8.20
2023-02-05T07:20:14.065Z,8.24
2023-02-05T07:21:14.033Z,8.31
2023-02-05T07:22:14.029Z,8.26
2023-02-05T07:23:14.025Z,8.21
2023-02-05T07:24:14.011Z,8.23
2023-02-05T07:25:14.018Z,8.23
2023-02-05T07:26:13.999Z,8.21
2023-02-05T07:27:13.988Z,8.28
2023-02-05T07:28:14.009Z,8.21
2023-02-05T07:29:14.058Z,8.20
2023-02-05T07:30:13.965Z,8.17
2023-02-05T07:31:14.080Z,8.26
2023-02-05T07:32:13.972Z,8.21
2023-02-05T07:33:13.953Z,8.17
2023-02-05T07:34:13.921Z,8.01
2023-02-05T07:35:13.932Z,8.13
2023-02-05T07:36:13.911Z,8.01
2023-02-05T07:37:13.906Z,8.13
2023-02-05T07:38:13.888Z,8.14
2023-02-05T07:39:13.907Z,8.29
2023-02-05T07:40:13.869Z,8.28
2023-02-05T07:41:13.870Z,8.24
2023-02-05T07:42:13.855Z,8.29
2023-02-05T07:43:13.843Z,8.31
2023-02-05T07:44:13.843Z,8.39
2023-02-05T07:45:13.826Z,8.38
2023-02-05T07:46:13.835Z,8.31
2023-02-05T07:47:13.810Z,8.32
2023-02-05T07:48:13.810Z,8.49
2023-02-05T07:49:13.789Z,8.46
2023-02-05T07:50:13.792Z,8.46
2023-02-05T07:51:13.814Z,8.41
2023-02-05T07:52:13.779Z,8.50
2023-02-05T07:53:13.761Z,8.41
2023-02-05T07:54:13.764Z,8.41
2023-02-05T07:55:13.793Z,8.52
2023-02-05T07:56:13.760Z,8.50
2023-02-05T07:57:13.722Z,8.55
2023-02-05T07:58:13.729Z,8.53
2023-02-05T07:59:13.715Z,8.56
2023-02-05T08:00:13.704Z,8.55
2023-02-05T08:01:13.735Z,8.57
2023-02-05T08:02:13.701Z,8.56
2023-02-05T08:03:13.689Z,8.65
2023-02-05T08:04:13.704Z,8.65
2023-02-05T08:05:13.653Z,8.55
2023-02-05T08:06:13.652Z,8.68
2023-02-05T08:07:13.649Z,8.63
2023-02-05T08:08:13.631Z,8.62
2023-02-05T08:09:13.625Z,8.63
2023-02-05T08:10:13.615Z,8.57
2023-02-05T08:11:13.613Z,8.52
2023-02-05T08:12:13.599Z,8.55
2023-02-05T08:13:13.583Z,8.56
2023-02-05T08:14:13.591Z,8.55
2023-02-05T08:15:13.579Z,8.68
2023-02-05T08:16:13.577Z,8.60
2023-02-05T08:17:13.552Z,8.57
2023-02-05T08:18:13.548Z,8.57
2023-02-05T08:19:13.553Z,8.59
2023-02-05T08:20:13.551Z,8.68
2023-02-05T08:21:13.526Z,8.68
2023-02-05T08:22:13.513Z,8.67
2023-02-05T08:23:13.502Z,8.60
2023-02-05T08:24:13.495Z,8.60
2023-02-05T08:25:13.493Z,8.70
2023-02-05T08:26:13.488Z,8.68
2023-02-05T08:27:13.481Z,8.71
2023-02-05T08:28:13.496Z,8.65
2023-02-05T08:29:13.456Z,8.71
2023-02-05T08:30:13.479Z,8.70
2023-02-05T08:31:13.516Z,8.63
2023-02-05T08:32:13.429Z,8.65
2023-02-05T08:33:13.452Z,8.63
2023-02-05T08:34:13.411Z,8.78
2023-02-05T08:35:13.437Z,8.68
2023-02-05T08:36:13.401Z,8.74
2023-02-05T08:37:13.391Z,8.75
2023-02-05T08:38:13.388Z,8.75
2023-02-05T08:39:13.377Z,8.68
2023-02-05T08:40:13.360Z,8.74
2023-02-05T08:41:13.351Z,8.74
2023-02-05T08:42:13.353Z,8.75
2023-02-05T08:43:13.343Z,8.74
2023-02-05T08:44:13.333Z,8.72
2023-02-05T08:45:13.320Z,8.74
2023-02-05T08:46:13.359Z,8.75
2023-02-05T08:47:13.304Z,8.77
2023-02-05T08:48:13.302Z,8.78
2023-02-05T08:49:13.286Z,8.71
2023-02-05T08:50:13.285Z,8.77
2023-02-05T08:51:13.272Z,8.70
2023-02-05T08:52:13.263Z,8.68
2023-02-05T08:53:13.254Z,8.80
2023-02-05T08:54:13.509Z,8.65
2023-02-05T08:55:13.247Z,8.67
2023-02-05T08:56:13.249Z,8.71
2023-02-05T08:57:13.222Z,8.71
2023-02-05T08:58:13.222Z,8.70
2023-02-05T08:59:13.221Z,8.70
2023-02-05T09:00:13.193Z,8.70
2023-02-05T09:01:13.251Z,8.72
2023-02-05T09:02:13.183Z,8.74
2023-02-05T09:03:13.166Z,8.74
2023-02-05T09:04:13.186Z,8.68
2023-02-05T09:05:13.156Z,8.71
2023-02-05T09:06:13.153Z,8.63
2023-02-05T09:07:13.138Z,8.62
2023-02-05T09:08:13.137Z,8.70
2023-02-05T09:09:13.116Z,8.65
2023-02-05T09:10:13.113Z,8.57
2023-02-05T09:11:13.101Z,8.56
2023-02-05T09:12:13.099Z,8.50
2023-02-05T09:13:13.081Z,8.55
2023-02-05T09:14:13.076Z,8.55
2023-02-05T09:15:13.065Z,8.52
2023-02-05T09:16:13.062Z,8.53
2023-02-05T09:17:13.060Z,8.55
2023-02-05T09:18:13.032Z,8.52
2023-02-05T09:19:13.042Z,8.57
2023-02-05T09:20:13.036Z,8.47
2023-02-05T09:21:13.051Z,8.52
2023-02-05T09:22:13.012Z,8.42
2023-02-05T09:23:13.002Z,8.42
2023-02-05T09:24:12.994Z,8.49
2023-02-05T09:25:12.982Z,8.39
2023-02-05T09:26:12.972Z,8.38
2023-02-05T09:27:12.976Z,8.35
2023-02-05T09:28:12.972Z,8.52
2023-02-05T09:29:12.950Z,8.39
2023-02-05T09:30:12.972Z,8.44
2023-02-05T09:31:13.056Z,8.49
2023-02-05T09:32:12.941Z,8.44
2023-02-05T09:33:12.908Z,8.44
2023-02-05T09:34:12.904Z,8.49
2023-02-05T09:35:12.904Z,8.38
2023-02-05T09:36:12.897Z,8.39
2023-02-05T09:37:12.868Z,8.35
2023-02-05T09:38:12.860Z,8.46
2023-02-05T09:39:21.748Z,8.44
2023-02-05T09:40:20.660Z,8.49
2023-02-05T09:41:12.863Z,8.42
2023-02-05T09:42:12.842Z,8.44
2023-02-05T09:43:12.830Z,8.34
2023-02-05T09:44:12.806Z,8.44
2023-02-05T09:45:12.833Z,8.32
2023-02-05T09:46:12.832Z,8.39
2023-02-05T09:47:12.785Z,8.34
2023-02-05T09:48:12.787Z,8.28
2023-02-05T09:49:12.781Z,8.28
2023-02-05T09:50:12.767Z,8.28
2023-02-05T09:51:12.752Z,8.31
2023-02-05T09:52:12.748Z,8.24
2023-02-05T09:53:12.746Z,8.16
2023-02-05T09:54:12.724Z,8.12
2023-02-05T09:55:12.722Z,8.12
2023-02-05T09:56:12.714Z,8.13
2023-02-05T09:57:12.703Z,8.14
2023-02-05T09:58:12.692Z,8.13
2023-02-05T09:59:12.673Z,8.12
2023-02-05T10:00:12.680Z,8.02
2023-02-05T10:01:12.683Z,8.04
2023-02-05T10:02:12.649Z,8.04
2023-02-05T10:03:12.671Z,8.04
2023-02-05T10:04:12.661Z,8.02
2023-02-05T10:05:12.618Z,8.04
2023-02-05T10:06:12.613Z,8.04
2023-02-05T10:07:12.612Z,8.02
2023-02-05T10:08:12.585Z,7.98
2023-02-05T10:09:12.602Z,8.05
2023-02-05T10:10:12.574Z,8.01
2023-02-05T10:11:12.570Z,7.99
2023-02-05T10:12:12.558Z,8.04
2023-02-05T10:13:12.544Z,7.91
2023-02-05T10:14:12.535Z,7.96
2023-02-05T10:15:12.533Z,7.99
2023-02-05T10:16:12.553Z,7.86
2023-02-05T10:17:12.509Z,7.98
2023-02-05T10:18:12.512Z,7.92
2023-02-05T10:19:12.495Z,7.91
2023-02-05T10:20:12.484Z,7.98
2023-02-05T10:21:12.481Z,7.84
2023-02-05T10:22:12.465Z,7.88
2023-02-05T10:23:12.455Z,7.83
2023-02-05T10:24:12.438Z,7.94
2023-02-05T10:25:12.436Z,7.95
2023-02-05T10:26:12.473Z,7.95
2023-02-05T10:27:12.420Z,7.92
2023-02-05T10:28:12.433Z,7.83
2023-02-05T10:29:12.400Z,7.83
2023-02-05T10:30:12.399Z,7.78
2023-02-05T10:31:12.509Z,7.80
2023-02-05T10:32:12.373Z,7.71
2023-02-05T10:33:12.381Z,7.73
2023-02-05T10:34:12.357Z,7.84
2023-02-05T10:35:12.367Z,7.86
2023-02-05T10:36:12.343Z,7.74
2023-02-05T10:37:12.331Z,7.73
2023-02-05T10:38:12.313Z,7.78
2023-02-05T10:39:12.318Z,7.77
2023-02-05T10:40:12.300Z,7.74
2023-02-05T10:41:12.297Z,7.83
2023-02-05T10:42:12.294Z,7.83
2023-02-05T10:43:12.272Z,7.86
2023-02-05T10:44:12.268Z,7.83
2023-02-05T10:45:12.257Z,7.84
2023-02-05T10:46:12.247Z,7.78
2023-02-05T10:47:12.237Z,7.80
2023-02-05T10:48:12.236Z,7.73
2023-02-05T10:49:12.212Z,7.68
2023-02-05T10:50:12.206Z,7.71
2023-02-05T10:51:12.194Z,7.73
2023-02-05T10:52:12.198Z,7.68
2023-02-05T10:53:12.176Z,7.68
2023-02-05T10:54:12.166Z,7.71
2023-02-05T10:55:12.157Z,7.64
2023-02-05T10:56:12.141Z,7.68
2023-02-05T10:57:12.141Z,7.71
2023-02-05T10:58:12.139Z,7.60
2023-02-05T10:59:12.130Z,7.58
2023-02-05T11:00:12.138Z,7.71
2023-02-05T11:01:12.103Z,7.69
2023-02-05T11:02:12.091Z,7.69
2023-02-05T11:03:12.083Z,7.76
2023-02-05T11:04:12.078Z,7.77
2023-02-05T11:05:12.067Z,7.73
2023-02-05T11:06:12.054Z,7.69
2023-02-05T11:07:12.040Z,7.74
2023-02-05T11:08:12.038Z,7.74
2023-02-05T11:09:12.033Z,7.73
2023-02-05T11:10:12.015Z,7.76
2023-02-05T11:11:12.006Z,7.66
2023-02-05T11:12:12.013Z,7.69
2023-02-05T11:13:11.988Z,7.68
2023-02-05T11:14:11.985Z,7.62
2023-02-05T11:15:11.965Z,7.69
2023-02-05T11:16:11.989Z,7.69
2023-02-05T11:17:11.953Z,7.69
2023-02-05T11:18:11.939Z,7.69
2023-02-05T11:19:13.965Z,7.71
2023-02-05T11:20:11.922Z,7.69
2023-02-05T11:21:11.915Z,7.74
2023-02-05T11:22:11.902Z,7.74
2023-02-05T11:23:11.914Z,7.68
2023-02-05T11:24:11.891Z,7.69
2023-02-05T11:25:11.871Z,7.68
2023-02-05T11:26:11.862Z,7.66
2023-02-05T11:27:11.853Z,7.71
2023-02-05T11:28:11.878Z,7.74
2023-02-05T11:29:11.826Z,7.87
2023-02-05T11:30:11.835Z,7.78
2023-02-05T11:31:11.912Z,7.81
2023-02-05T11:32:13.749Z,7.87
2023-02-05T11:33:11.800Z,7.78
2023-02-05T11:34:11.797Z,7.80
2023-02-05T11:35:11.783Z,7.88
2023-02-05T11:36:11.766Z,7.91
2023-02-05T11:37:11.763Z,7.88
2023-02-05T11:38:11.795Z,7.86
2023-02-05T11:39:11.754Z,7.88
2023-02-05T11:40:11.750Z,7.83
2023-02-05T11:41:11.718Z,7.88
2023-02-05T11:42:11.722Z,7.91
2023-02-05T11:43:11.702Z,7.92
2023-02-05T11:44:11.704Z,7.83
2023-02-05T11:45:11.691Z,7.86
2023-02-05T11:46:11.698Z,7.87
2023-02-05T11:47:11.667Z,7.84
2023-02-05T11:48:11.661Z,7.95
2023-02-05T11:49:11.648Z,7.92
2023-02-05T11:50:11.640Z,7.87
2023-02-05T11:51:11.627Z,7.96
2023-02-05T11:52:11.614Z,7.98
2023-02-05T11:53:11.609Z,7.92
2023-02-05T11:54:11.603Z,7.87
2023-02-05T11:55:11.607Z,7.88
2023-02-05T11:56:11.599Z,7.86
2023-02-05T11:57:11.580Z,7.96
2023-02-05T11:58:11.567Z,7.98
2023-02-05T11:59:11.564Z,8.04
2023-02-05T12:00:11.552Z,7.98
2023-02-05T12:01:11.543Z,8.10
2023-02-05T12:02:11.615Z,8.04
2023-02-05T12:03:11.563Z,8.10
2023-02-05T12:04:11.519Z,8.01
2023-02-05T12:05:11.507Z,7.91
2023-02-05T12:06:11.499Z,7.94
2023-02-05T12:07:11.490Z,8.02
2023-02-05T12:08:11.485Z,7.99
2023-02-05T12:09:11.475Z,8.04
2023-02-05T12:10:11.466Z,8.02
2023-02-05T12:11:11.459Z,8.02
2023-02-05T12:12:11.457Z,8.04
2023-02-05T12:13:11.438Z,8.13
2023-02-05T12:14:11.423Z,8.04
2023-02-05T12:15:11.426Z,8.17
2023-02-05T12:16:11.428Z,8.10
2023-02-05T12:17:11.404Z,8.05
2023-02-05T12:18:11.414Z,8.04
2023-02-05T12:19:11.379Z,8.01
2023-02-05T12:20:11.376Z,8.02
2023-02-05T12:21:11.355Z,7.99
2023-02-05T12:22:11.364Z,8.04
2023-02-05T12:23:11.347Z,8.06
2023-02-05T12:24:11.336Z,8.05
2023-02-05T12:25:11.323Z,8.05
2023-02-05T12:26:11.313Z,8.04
2023-02-05T12:27:11.321Z,7.98
2023-02-05T12:28:11.344Z,7.98
2023-02-05T12:29:11.292Z,7.98
2023-02-05T12:30:11.279Z,7.91
2023-02-05T12:31:11.281Z,8.05
2023-02-05T12:32:11.255Z,8.01
2023-02-05T12:33:11.263Z,7.88
2023-02-05T12:34:11.250Z,7.94
2023-02-05T12:35:11.235Z,8.04
2023-02-05T12:36:11.245Z,7.96
2023-02-05T12:37:11.225Z,7.96
2023-02-05T12:38:12.412Z,7.91
2023-02-05T12:39:11.201Z,7.86
2023-02-05T12:40:11.184Z,7.87
2023-02-05T12:41:11.169Z,7.92
2023-02-05T12:42:11.167Z,7.86
2023-02-05T12:43:11.155Z,7.86
2023-02-05T12:44:11.147Z,7.94
2023-02-05T12:45:11.142Z,7.92
2023-02-05T12:46:11.161Z,7.86
2023-02-05T12:47:11.123Z,7.92
2023-02-05T12:48:11.107Z,7.98
2023-02-05T12:49:11.102Z,7.95
2023-02-05T12:50:11.092Z,7.99
2023-02-05T12:51:11.073Z,7.95
2023-02-05T12:52:11.083Z,8.02
2023-02-05T12:53:11.070Z,7.87
2023-02-05T12:54:11.054Z,7.99
2023-02-05T12:55:11.050Z,7.94
2023-02-05T12:56:11.035Z,7.92
2023-02-05T12:57:11.034Z,7.98
2023-02-05T12:58:11.023Z,7.87
2023-02-05T12:59:11.009Z,7.92
2023-02-05T13:00:10.999Z,7.92
2023-02-05T13:01:11.014Z,7.88
2023-02-05T13:02:10.971Z,7.88
2023-02-05T13:03:10.977Z,7.92
2023-02-05T13:04:10.967Z,7.94
2023-02-05T13:05:10.951Z,7.81
2023-02-05T13:06:10.945Z,7.83
2023-02-05T13:07:10.946Z,7.80
2023-02-05T13:08:10.926Z,7.78
2023-02-05T13:09:10.916Z,7.78
2023-02-05T13:10:10.905Z,7.81
2023-02-05T13:11:10.908Z,7.80
2023-02-05T13:12:10.891Z,7.83
2023-02-05T13:13:10.886Z,7.78
2023-02-05T13:14:10.881Z,7.81
2023-02-05T13:15:10.863Z,7.83
2023-02-05T13:16:10.955Z,7.81
2023-02-05T13:17:10.843Z,7.83
2023-02-05T13:18:10.833Z,7.80